Terminal Aerodrome Forecast
Issued by NWS

Home | Current Version | Previous Version | Text Only | Print | Product List | Glossary On
Versions: 1 2 3 4 5 6 7 8 9 10 11 12 13 14 15 16 17
000
FTUS43 KSGF 222320
TAFBBG
TAF
KBBG 222320Z 2300/2324 15006KT P6SM VCSH SCT025 BKN050
     FM230900 VRB03KT 1SM BR OVC005
     FM231300 32006KT P6SM OVC020 PROB30 2313/2317 5SM TS BKN020CB
     FM231700 31010KT P6SM VCTS OVC025CB=

USA.gov is the U.S. government's official web portal to all federal, state and local government web resources and services.